sensor_id;sensor_type;location;lat;lon;timestamp;pressure;altitude;pressure_sealevel;temperature;humidity
54910;BME280;63189;51.240;9.964;2022-12-18T00:01:35;99191.69;;;-9.42;89.96
54910;BME280;63189;51.240;9.964;2022-12-18T00:04:03;99188.31;;;-9.43;89.25
54910;BME280;63189;51.240;9.964;2022-12-18T00:06:29;99188.41;;;-9.41;89.14
54910;BME280;63189;51.240;9.964;2022-12-18T00:08:55;99192.56;;;-9.42;89.06
54910;BME280;63189;51.240;9.964;2022-12-18T00:11:23;99196.66;;;-9.44;89.13
54910;BME280;63189;51.240;9.964;2022-12-18T00:13:48;99192.19;;;-9.48;88.03
54910;BME280;63189;51.240;9.964;2022-12-18T00:16:15;99190.41;;;-9.49;87.54
54910;BME280;63189;51.240;9.964;2022-12-18T00:18:41;99189.31;;;-9.52;87.62
54910;BME280;63189;51.240;9.964;2022-12-18T00:21:07;99190.97;;;-9.53;87.66
54910;BME280;63189;51.240;9.964;2022-12-18T00:23:33;99197.47;;;-9.56;88.16
54910;BME280;63189;51.240;9.964;2022-12-18T00:26:00;99199.13;;;-9.57;87.85
54910;BME280;63189;51.240;9.964;2022-12-18T00:28:25;99204.94;;;-9.58;87.03
54910;BME280;63189;51.240;9.964;2022-12-18T00:30:50;99201.41;;;-9.60;87.37
54910;BME280;63189;51.240;9.964;2022-12-18T00:33:16;99209.88;;;-9.60;87.38
54910;BME280;63189;51.240;9.964;2022-12-18T00:35:41;99206.47;;;-9.60;87.55
54910;BME280;63189;51.240;9.964;2022-12-18T00:38:07;99203.84;;;-9.62;88.22
54910;BME280;63189;51.240;9.964;2022-12-18T00:40:32;99198.78;;;-9.62;88.50
54910;BME280;63189;51.240;9.964;2022-12-18T00:42:57;99201.22;;;-9.63;88.48
54910;BME280;63189;51.240;9.964;2022-12-18T00:45:26;99197.81;;;-9.64;88.52
54910;BME280;63189;51.240;9.964;2022-12-18T00:47:52;99201.22;;;-9.63;88.37
54910;BME280;63189;51.240;9.964;2022-12-18T00:50:18;99203.53;;;-9.66;88.63
54910;BME280;63189;51.240;9.964;2022-12-18T00:52:43;99213.53;;;-9.68;88.91
54910;BME280;63189;51.240;9.964;2022-12-18T00:55:09;99211.78;;;-9.69;88.87
54910;BME280;63189;51.240;9.964;2022-12-18T00:57:34;99216.84;;;-9.69;88.82
54910;BME280;63189;51.240;9.964;2022-12-18T00:59:59;99220.88;;;-9.71;88.71
54910;BME280;63189;51.240;9.964;2022-12-18T01:02:24;99223.41;;;-9.71;88.67
54910;BME280;63189;51.240;9.964;2022-12-18T01:04:50;99218.94;;;-9.75;88.30
54910;BME280;63189;51.240;9.964;2022-12-18T01:07:15;99223.88;;;-9.76;88.54
54910;BME280;63189;51.240;9.964;2022-12-18T01:09:40;99223.00;;;-9.77;88.33
54910;BME280;63189;51.240;9.964;2022-12-18T01:12:05;99227.16;;;-9.77;88.02
54910;BME280;63189;51.240;9.964;2022-12-18T01:14:31;99229.69;;;-9.77;88.54
54910;BME280;63189;51.240;9.964;2022-12-18T01:16:57;99223.44;;;-9.82;88.08
54910;BME280;63189;51.240;9.964;2022-12-18T01:19:22;99233.63;;;-9.81;87.59
54910;BME280;63189;51.240;9.964;2022-12-18T01:21:48;99233.63;;;-9.81;88.29
54910;BME280;63189;51.240;9.964;2022-12-18T01:24:13;99236.16;;;-9.81;89.16
54910;BME280;63189;51.240;9.964;2022-12-18T01:26:39;99241.44;;;-9.78;88.71
54910;BME280;63189;51.240;9.964;2022-12-18T01:29:04;99238.81;;;-9.79;88.70
54910;BME280;63189;51.240;9.964;2022-12-18T01:31:30;99254.59;;;-9.82;87.08
54910;BME280;63189;51.240;9.964;2022-12-18T01:33:56;99253.41;;;-9.87;87.16
54910;BME280;63189;51.240;9.964;2022-12-18T01:36:25;99250.44;;;-9.93;87.23
54910;BME280;63189;51.240;9.964;2022-12-18T01:38:51;99253.31;;;-10.00;87.81
54910;BME280;63189;51.240;9.964;2022-12-18T01:41:17;99253.09;;;-10.03;88.23
54910;BME280;63189;51.240;9.964;2022-12-18T01:43:50;99265.59;;;-10.05;88.96
54910;BME280;63189;51.240;9.964;2022-12-18T01:46:16;99248.03;;;-10.03;90.05
54910;BME280;63189;51.240;9.964;2022-12-18T01:48:42;99256.59;;;-10.01;89.50
54910;BME280;63189;51.240;9.964;2022-12-18T01:51:08;99247.16;;;-10.04;89.53
54910;BME280;63189;51.240;9.964;2022-12-18T01:53:34;99249.03;;;-10.01;90.07
54910;BME280;63189;51.240;9.964;2022-12-18T01:56:01;99242.69;;;-9.96;92.92
54910;BME280;63189;51.240;9.964;2022-12-18T02:00:57;99232.66;;;-9.83;95.36
54910;BME280;63189;51.240;9.964;2022-12-18T02:03:22;99227.06;;;-9.79;95.80
54910;BME280;63189;51.240;9.964;2022-12-18T02:06:00;99229.03;;;-9.75;95.90
54910;BME280;63189;51.240;9.964;2022-12-18T02:08:27;99228.44;;;-9.71;95.96
54910;BME280;63189;51.240;9.964;2022-12-18T02:16:29;99233.94;;;-9.65;92.71
54910;BME280;63189;51.240;9.964;2022-12-18T02:18:56;99230.44;;;-9.67;91.77
54910;BME280;63189;51.240;9.964;2022-12-18T02:24:03;99231.22;;;-9.68;91.82
54910;BME280;63189;51.240;9.964;2022-12-18T02:26:37;99235.00;;;-9.61;94.08
54910;BME280;63189;51.240;9.964;2022-12-18T02:29:07;99223.50;;;-9.57;94.99
54910;BME280;63189;51.240;9.964;2022-12-18T02:31:38;99224.56;;;-9.54;95.12
54910;BME280;63189;51.240;9.964;2022-12-18T02:34:06;99229.72;;;-9.52;94.66
54910;BME280;63189;51.240;9.964;2022-12-18T02:36:32;99224.22;;;-9.47;94.44
54910;BME280;63189;51.240;9.964;2022-12-18T02:38:58;99232.00;;;-9.44;95.51
54910;BME280;63189;51.240;9.964;2022-12-18T02:41:25;99226.28;;;-9.41;95.49
54910;BME280;63189;51.240;9.964;2022-12-18T02:43:56;99238.13;;;-9.40;94.44
54910;BME280;63189;51.240;9.964;2022-12-18T02:46:31;99238.22;;;-9.39;93.84
54910;BME280;63189;51.240;9.964;2022-12-18T02:49:01;99235.81;;;-9.37;93.90
54910;BME280;63189;51.240;9.964;2022-12-18T02:51:29;99240.88;;;-9.37;93.67
54910;BME280;63189;51.240;9.964;2022-12-18T02:53:58;99221.41;;;-9.38;92.16
54910;BME280;63189;51.240;9.964;2022-12-18T02:56:30;99230.00;;;-9.36;93.91
54910;BME280;63189;51.240;9.964;2022-12-18T03:01:26;99231.66;;;-9.37;93.22
54910;BME280;63189;51.240;9.964;2022-12-18T03:03:58;99230.53;;;-9.40;92.02
54910;BME280;63189;51.240;9.964;2022-12-18T03:06:32;99231.50;;;-9.38;93.28
54910;BME280;63189;51.240;9.964;2022-12-18T03:09:01;99236.56;;;-9.38;92.29
54910;BME280;63189;51.240;9.964;2022-12-18T03:11:28;99241.41;;;-9.41;92.04
54910;BME280;63189;51.240;9.964;2022-12-18T03:14:13;99238.88;;;-9.41;91.73
54910;BME280;63189;51.240;9.964;2022-12-18T03:16:41;99233.66;;;-9.44;91.67
54910;BME280;63189;51.240;9.964;2022-12-18T03:19:08;99234.41;;;-9.45;91.28
54910;BME280;63189;51.240;9.964;2022-12-18T03:21:43;99227.38;;;-9.49;91.67
54910;BME280;63189;51.240;9.964;2022-12-18T03:24:10;99231.25;;;-9.54;91.80
54910;BME280;63189;51.240;9.964;2022-12-18T03:26:36;99232.81;;;-9.56;91.21
54910;BME280;63189;51.240;9.964;2022-12-18T03:29:06;99229.31;;;-9.58;90.12
54910;BME280;63189;51.240;9.964;2022-12-18T03:31:37;99221.63;;;-9.60;89.80
54910;BME280;63189;51.240;9.964;2022-12-18T03:34:05;99214.72;;;-9.63;90.64
54910;BME280;63189;51.240;9.964;2022-12-18T03:36:34;99217.91;;;-9.65;90.25
54910;BME280;63189;51.240;9.964;2022-12-18T03:38:59;99213.94;;;-9.62;92.66
54910;BME280;63189;51.240;9.964;2022-12-18T03:43:55;99211.94;;;-9.54;92.48
54910;BME280;63189;51.240;9.964;2022-12-18T03:48:56;99212.25;;;-9.49;91.94
54910;BME280;63189;51.240;9.964;2022-12-18T03:51:26;99210.59;;;-9.49;92.57
54910;BME280;63189;51.240;9.964;2022-12-18T03:53:55;99202.38;;;-9.46;93.96
54910;BME280;63189;51.240;9.964;2022-12-18T03:56:23;99203.53;;;-9.41;94.49
54910;BME280;63189;51.240;9.964;2022-12-18T03:58:50;99203.09;;;-9.36;95.06
54910;BME280;63189;51.240;9.964;2022-12-18T04:01:17;99207.47;;;-9.33;94.43
54910;BME280;63189;51.240;9.964;2022-12-18T04:03:44;99204.16;;;-9.32;94.50
54910;BME280;63189;51.240;9.964;2022-12-18T04:06:12;99208.44;;;-9.31;93.90
54910;BME280;63189;51.240;9.964;2022-12-18T04:08:38;99212.53;;;-9.33;93.91
54910;BME280;63189;51.240;9.964;2022-12-18T04:13:34;99204.75;;;-9.36;93.01
54910;BME280;63189;51.240;9.964;2022-12-18T04:16:00;99216.50;;;-9.37;92.99
54910;BME280;63189;51.240;9.964;2022-12-18T04:18:26;99212.22;;;-9.38;93.22
54910;BME280;63189;51.240;9.964;2022-12-18T04:20:51;99211.03;;;-9.43;92.75
54910;BME280;63189;51.240;9.964;2022-12-18T04:23:16;99207.44;;;-9.46;91.84
54910;BME280;63189;51.240;9.964;2022-12-18T04:25:41;99222.91;;;-9.53;92.20
54910;BME280;63189;51.240;9.964;2022-12-18T04:28:07;99222.72;;;-9.56;92.68
54910;BME280;63189;51.240;9.964;2022-12-18T04:30:32;99222.72;;;-9.56;93.47
54910;BME280;63189;51.240;9.964;2022-12-18T04:32:57;99225.44;;;-9.53;95.13
54910;BME280;63189;51.240;9.964;2022-12-18T04:35:22;99223.34;;;-9.47;94.87
54910;BME280;63189;51.240;9.964;2022-12-18T04:37:49;99215.97;;;-9.44;94.74
54910;BME280;63189;51.240;9.964;2022-12-18T04:40:14;99220.25;;;-9.43;93.85
54910;BME280;63189;51.240;9.964;2022-12-18T04:42:39;99226.94;;;-9.44;93.29
54910;BME280;63189;51.240;9.964;2022-12-18T04:45:05;99229.47;;;-9.44;92.08
54910;BME280;63189;51.240;9.964;2022-12-18T04:47:31;99237.03;;;-9.44;92.15
54910;BME280;63189;51.240;9.964;2022-12-18T04:49:56;99242.97;;;-9.43;93.47
54910;BME280;63189;51.240;9.964;2022-12-18T04:52:21;99233.75;;;-9.43;92.98
54910;BME280;63189;51.240;9.964;2022-12-18T04:54:46;99237.16;;;-9.42;94.28
54910;BME280;63189;51.240;9.964;2022-12-18T04:57:11;99240.63;;;-9.40;94.17
54910;BME280;63189;51.240;9.964;2022-12-18T04:59:37;99239.09;;;-9.38;95.05
54910;BME280;63189;51.240;9.964;2022-12-18T05:02:02;99234.81;;;-9.39;93.92
54910;BME280;63189;51.240;9.964;2022-12-18T05:04:27;99235.81;;;-9.37;94.04
54910;BME280;63189;51.240;9.964;2022-12-18T05:06:52;99232.53;;;-9.36;94.21
54910;BME280;63189;51.240;9.964;2022-12-18T05:09:18;99234.94;;;-9.38;94.67
54910;BME280;63189;51.240;9.964;2022-12-18T05:11:43;99239.09;;;-9.38;94.59
54910;BME280;63189;51.240;9.964;2022-12-18T05:14:08;99248.44;;;-9.37;94.73
54910;BME280;63189;51.240;9.964;2022-12-18T05:16:33;99245.16;;;-9.36;94.94
54910;BME280;63189;51.240;9.964;2022-12-18T05:18:59;99248.66;;;-9.34;94.41
54910;BME280;63189;51.240;9.964;2022-12-18T05:21:24;99249.63;;;-9.32;94.53
54910;BME280;63189;51.240;9.964;2022-12-18T05:23:49;99254.66;;;-9.32;94.72
54910;BME280;63189;51.240;9.964;2022-12-18T05:26:16;99255.53;;;-9.32;94.92
54910;BME280;63189;51.240;9.964;2022-12-18T05:28:42;99262.25;;;-9.32;94.92
54910;BME280;63189;51.240;9.964;2022-12-18T05:31:07;99264.78;;;-9.32;94.34
54910;BME280;63189;51.240;9.964;2022-12-18T05:33:33;99263.03;;;-9.33;94.46
54910;BME280;63189;51.240;9.964;2022-12-18T05:36:03;99259.53;;;-9.35;94.02
54910;BME280;63189;51.240;9.964;2022-12-18T05:38:29;99259.53;;;-9.35;94.86
54910;BME280;63189;51.240;9.964;2022-12-18T05:40:54;99254.56;;;-9.34;94.43
54910;BME280;63189;51.240;9.964;2022-12-18T05:43:20;99254.88;;;-9.29;96.00
54910;BME280;63189;51.240;9.964;2022-12-18T05:45:46;99243.44;;;-9.24;96.53
54910;BME280;63189;51.240;9.964;2022-12-18T05:48:12;99249.47;;;-9.22;96.79
54910;BME280;63189;51.240;9.964;2022-12-18T05:50:37;99247.13;;;-9.19;96.17
54910;BME280;63189;51.240;9.964;2022-12-18T05:53:03;99248.00;;;-9.18;95.81
54910;BME280;63189;51.240;9.964;2022-12-18T05:55:28;99248.00;;;-9.18;95.92
54910;BME280;63189;51.240;9.964;2022-12-18T05:57:54;99252.41;;;-9.16;96.48
54910;BME280;63189;51.240;9.964;2022-12-18T06:00:19;99249.13;;;-9.15;96.35
54910;BME280;63189;51.240;9.964;2022-12-18T06:02:47;99248.34;;;-9.14;96.92
54910;BME280;63189;51.240;9.964;2022-12-18T06:05:12;99260.28;;;-9.11;96.64
54910;BME280;63189;51.240;9.964;2022-12-18T06:07:38;99259.59;;;-9.09;96.27
54910;BME280;63189;51.240;9.964;2022-12-18T06:10:03;99261.16;;;-9.11;94.88
54910;BME280;63189;51.240;9.964;2022-12-18T06:12:28;99260.97;;;-9.14;94.95
54910;BME280;63189;51.240;9.964;2022-12-18T06:14:53;99249.31;;;-9.12;96.23
54910;BME280;63189;51.240;9.964;2022-12-18T06:17:19;99246.00;;;-9.11;96.32
54910;BME280;63189;51.240;9.964;2022-12-18T06:19:44;99242.91;;;-9.07;97.27
54910;BME280;63189;51.240;9.964;2022-12-18T06:22:09;99245.41;;;-9.07;95.74
54910;BME280;63189;51.240;9.964;2022-12-18T06:24:34;99246.34;;;-9.06;95.07
54910;BME280;63189;51.240;9.964;2022-12-18T06:26:59;99236.97;;;-9.07;94.84
54910;BME280;63189;51.240;9.964;2022-12-18T06:29:25;99236.09;;;-9.08;95.27
54910;BME280;63189;51.240;9.964;2022-12-18T06:31:50;99242.91;;;-9.07;96.10
54910;BME280;63189;51.240;9.964;2022-12-18T06:34:15;99234.56;;;-9.06;96.41
54910;BME280;63189;51.240;9.964;2022-12-18T06:36:40;99245.75;;;-9.02;96.95
54910;BME280;63189;51.240;9.964;2022-12-18T06:39:05;99243.50;;;-8.97;96.02
54910;BME280;63189;51.240;9.964;2022-12-18T06:41:31;99242.44;;;-9.01;95.23
54910;BME280;63189;51.240;9.964;2022-12-18T06:43:57;99249.16;;;-9.02;96.46
54910;BME280;63189;51.240;9.964;2022-12-18T06:46:22;99259.34;;;-9.00;96.68
54910;BME280;63189;51.240;9.964;2022-12-18T06:48:48;99255.66;;;-9.05;94.81
54910;BME280;63189;51.240;9.964;2022-12-18T06:51:18;99268.16;;;-9.07;95.31
54910;BME280;63189;51.240;9.964;2022-12-18T06:53:43;99264.75;;;-9.07;94.10
54910;BME280;63189;51.240;9.964;2022-12-18T06:56:09;99271.06;;;-9.14;93.46
54910;BME280;63189;51.240;9.964;2022-12-18T06:58:34;99269.88;;;-9.19;92.40
54910;BME280;63189;51.240;9.964;2022-12-18T07:01:00;99261.31;;;-9.21;93.82
54910;BME280;63189;51.240;9.964;2022-12-18T07:03:25;99251.53;;;-9.16;96.71
54910;BME280;63189;51.240;9.964;2022-12-18T07:05:50;99262.03;;;-9.10;96.85
54910;BME280;63189;51.240;9.964;2022-12-18T07:08:15;99265.00;;;-9.04;96.24
54910;BME280;63189;51.240;9.964;2022-12-18T07:10:41;99264.41;;;-9.00;97.34
54910;BME280;63189;51.240;9.964;2022-12-18T07:13:08;99263.06;;;-8.95;97.52
54910;BME280;63189;51.240;9.964;2022-12-18T07:15:33;99270.94;;;-8.90;97.12
54910;BME280;63189;51.240;9.964;2022-12-18T07:17:58;99266.88;;;-8.88;96.86
54910;BME280;63189;51.240;9.964;2022-12-18T07:20:24;99276.41;;;-8.84;96.72
54910;BME280;63189;51.240;9.964;2022-12-18T07:22:49;99279.81;;;-8.84;95.54
54910;BME280;63189;51.240;9.964;2022-12-18T07:25:14;99281.66;;;-8.81;95.64
54910;BME280;63189;51.240;9.964;2022-12-18T07:27:40;99284.19;;;-8.81;96.32
54910;BME280;63189;51.240;9.964;2022-12-18T07:30:06;99294.50;;;-8.78;96.80
54910;BME280;63189;51.240;9.964;2022-12-18T07:32:31;99288.13;;;-8.73;98.03
54910;BME280;63189;51.240;9.964;2022-12-18T07:34:56;99298.50;;;-8.68;97.20
54910;BME280;63189;51.240;9.964;2022-12-18T07:37:21;99304.53;;;-8.66;97.21
54910;BME280;63189;51.240;9.964;2022-12-18T07:39:47;99310.69;;;-8.63;96.48
54910;BME280;63189;51.240;9.964;2022-12-18T07:42:12;99314.19;;;-8.61;96.76
54910;BME280;63189;51.240;9.964;2022-12-18T07:44:55;99314.28;;;-8.59;96.44
54910;BME280;63189;51.240;9.964;2022-12-18T07:47:21;99322.84;;;-8.57;96.19
54910;BME280;63189;51.240;9.964;2022-12-18T07:49:46;99323.72;;;-8.57;95.46
54910;BME280;63189;51.240;9.964;2022-12-18T07:52:11;99324.59;;;-8.56;95.63
54910;BME280;63189;51.240;9.964;2022-12-18T07:54:37;99326.47;;;-8.54;95.65
54910;BME280;63189;51.240;9.964;2022-12-18T07:57:02;99324.16;;;-8.51;96.04
54910;BME280;63189;51.240;9.964;2022-12-18T07:59:27;99320.06;;;-8.49;95.88
54910;BME280;63189;51.240;9.964;2022-12-18T08:01:53;99321.25;;;-8.43;96.58
54910;BME280;63189;51.240;9.964;2022-12-18T08:04:18;99323.00;;;-8.42;95.56
54910;BME280;63189;51.240;9.964;2022-12-18T08:06:44;99331.75;;;-8.37;95.89
54910;BME280;63189;51.240;9.964;2022-12-18T08:09:09;99312.53;;;-8.34;95.59
54910;BME280;63189;51.240;9.964;2022-12-18T08:11:35;99304.31;;;-8.31;95.90
54910;BME280;63189;51.240;9.964;2022-12-18T08:14:00;99296.72;;;-8.31;94.59
54910;BME280;63189;51.240;9.964;2022-12-18T08:16:25;99298.47;;;-8.30;94.49
54910;BME280;63189;51.240;9.964;2022-12-18T08:18:51;99294.28;;;-8.30;94.48
54910;BME280;63189;51.240;9.964;2022-12-18T08:21:18;99288.53;;;-8.27;94.91
54910;BME280;63189;51.240;9.964;2022-12-18T08:23:46;99290.47;;;-8.23;95.91
54910;BME280;63189;51.240;9.964;2022-12-18T08:26:11;99289.13;;;-8.18;96.23
54910;BME280;63189;51.240;9.964;2022-12-18T08:28:37;99287.75;;;-8.13;95.30
54910;BME280;63189;51.240;9.964;2022-12-18T08:31:02;99280.56;;;-8.07;95.78
54910;BME280;63189;51.240;9.964;2022-12-18T08:33:28;99283.28;;;-8.04;94.13
54910;BME280;63189;51.240;9.964;2022-12-18T08:35:53;99283.47;;;-7.74;92.97
54910;BME280;63189;51.240;9.964;2022-12-18T08:38:20;99280.41;;;-7.14;93.43
54910;BME280;63189;51.240;9.964;2022-12-18T08:40:45;99291.00;;;-6.49;90.03
54910;BME280;63189;51.240;9.964;2022-12-18T08:43:10;99279.66;;;-5.95;89.27
54910;BME280;63189;51.240;9.964;2022-12-18T08:45:54;99274.56;;;-5.17;86.97
54910;BME280;63189;51.240;9.964;2022-12-18T08:48:20;99277.63;;;-4.74;82.77
54910;BME280;63189;51.240;9.964;2022-12-18T08:51:19;99278.66;;;-4.02;82.33
54910;BME280;63189;51.240;9.964;2022-12-18T08:53:37;99266.22;;;-3.41;80.39
54910;BME280;63189;51.240;9.964;2022-12-18T08:56:02;99266.81;;;-2.90;78.28
54910;BME280;63189;51.240;9.964;2022-12-18T08:58:29;99261.19;;;-2.62;73.28
54910;BME280;63189;51.240;9.964;2022-12-18T09:00:54;99255.00;;;-2.27;73.31
54910;BME280;63189;51.240;9.964;2022-12-18T09:03:24;99241.84;;;-1.94;71.60
54910;BME280;63189;51.240;9.964;2022-12-18T09:05:49;99243.88;;;-1.86;70.16
54910;BME280;63189;51.240;9.964;2022-12-18T09:08:15;99245.16;;;-1.75;68.42
54910;BME280;63189;51.240;9.964;2022-12-18T09:10:43;99242.78;;;-1.48;67.49
54910;BME280;63189;51.240;9.964;2022-12-18T09:13:10;99237.09;;;-1.40;69.20
54910;BME280;63189;51.240;9.964;2022-12-18T09:15:45;99231.88;;;-0.96;68.10
54910;BME280;63189;51.240;9.964;2022-12-18T09:18:11;99240.53;;;-0.94;67.57
54910;BME280;63189;51.240;9.964;2022-12-18T09:20:37;99227.66;;;-0.71;65.33
54910;BME280;63189;51.240;9.964;2022-12-18T09:23:02;99221.97;;;-0.37;66.35
54910;BME280;63189;51.240;9.964;2022-12-18T09:25:31;99224.22;;;-0.46;63.37
54910;BME280;63189;51.240;9.964;2022-12-18T09:28:19;99239.81;;;-0.90;62.58
54910;BME280;63189;51.240;9.964;2022-12-18T09:30:45;99239.56;;;-0.96;65.29
54910;BME280;63189;51.240;9.964;2022-12-18T09:33:10;99231.06;;;-0.95;64.46
54910;BME280;63189;51.240;9.964;2022-12-18T09:35:36;99237.56;;;-0.80;65.25
54910;BME280;63189;51.240;9.964;2022-12-18T09:38:02;99243.75;;;-0.50;65.74
54910;BME280;63189;51.240;9.964;2022-12-18T09:40:28;99235.72;;;-0.34;64.28
54910;BME280;63189;51.240;9.964;2022-12-18T09:42:58;99233.63;;;-0.45;64.61
54910;BME280;63189;51.240;9.964;2022-12-18T09:45:24;99242.03;;;-0.24;67.60
54910;BME280;63189;51.240;9.964;2022-12-18T09:47:50;99235.91;;;-0.29;65.37
54910;BME280;63189;51.240;9.964;2022-12-18T09:52:43;99235.50;;;-0.41;64.53
54910;BME280;63189;51.240;9.964;2022-12-18T09:55:14;99233.50;;;-0.50;65.73
54910;BME280;63189;51.240;9.964;2022-12-18T09:57:45;99229.94;;;-0.79;66.75
54910;BME280;63189;51.240;9.964;2022-12-18T10:00:21;99232.13;;;-1.13;66.48
54910;BME280;63189;51.240;9.964;2022-12-18T10:02:47;99223.09;;;-1.50;67.52
54910;BME280;63189;51.240;9.964;2022-12-18T10:05:15;99221.19;;;-1.56;68.54
54910;BME280;63189;51.240;9.964;2022-12-18T10:10:35;99248.69;;;-1.93;68.59
54910;BME280;63189;51.240;9.964;2022-12-18T10:15:36;99244.06;;;-1.81;71.87
54910;BME280;63189;51.240;9.964;2022-12-18T10:22:58;99245.84;;;-1.79;70.25
54910;BME280;63189;51.240;9.964;2022-12-18T10:25:31;99244.03;;;-2.24;69.66
54910;BME280;63189;51.240;9.964;2022-12-18T10:28:10;99235.38;;;-2.49;72.40
54910;BME280;63189;51.240;9.964;2022-12-18T10:30:37;99238.75;;;-2.50;72.84
54910;BME280;63189;51.240;9.964;2022-12-18T10:33:03;99229.41;;;-2.49;72.91
54910;BME280;63189;51.240;9.964;2022-12-18T10:35:28;99238.09;;;-2.44;72.72
54910;BME280;63189;51.240;9.964;2022-12-18T10:38:04;99229.31;;;-2.30;74.34
54910;BME280;63189;51.240;9.964;2022-12-18T10:40:30;99239.91;;;-2.21;75.19
54910;BME280;63189;51.240;9.964;2022-12-18T10:45:29;99234.25;;;-2.14;74.50
54910;BME280;63189;51.240;9.964;2022-12-18T10:47:55;99229.09;;;-2.15;72.64
54910;BME280;63189;51.240;9.964;2022-12-18T10:52:58;99239.94;;;-1.98;73.00
54910;BME280;63189;51.240;9.964;2022-12-18T10:55:27;99238.22;;;-1.99;73.86
54910;BME280;63189;51.240;9.964;2022-12-18T10:57:55;99243.41;;;-1.98;75.69
54910;BME280;63189;51.240;9.964;2022-12-18T11:00:37;99246.47;;;-2.07;71.56
54910;BME280;63189;51.240;9.964;2022-12-18T11:03:07;99249.69;;;-2.11;71.79
54910;BME280;63189;51.240;9.964;2022-12-18T11:05:48;99237.34;;;-2.21;73.62
54910;BME280;63189;51.240;9.964;2022-12-18T11:08:25;99234.50;;;-2.28;74.86
54910;BME280;63189;51.240;9.964;2022-12-18T11:10:51;99237.34;;;-2.21;75.05
54910;BME280;63189;51.240;9.964;2022-12-18T11:13:26;99225.06;;;-2.09;76.04
54910;BME280;63189;51.240;9.964;2022-12-18T11:15:52;99221.03;;;-2.04;76.25
54910;BME280;63189;51.240;9.964;2022-12-18T11:18:31;99204.53;;;-1.89;78.31
54910;BME280;63189;51.240;9.964;2022-12-18T11:21:05;99197.47;;;-1.74;78.06
54910;BME280;63189;51.240;9.964;2022-12-18T11:23:31;99190.88;;;-1.67;77.42
54910;BME280;63189;51.240;9.964;2022-12-18T11:25:58;99197.06;;;-1.62;76.40
54910;BME280;63189;51.240;9.964;2022-12-18T11:29:10;99196.09;;;-1.66;74.84
54910;BME280;63189;51.240;9.964;2022-12-18T11:31:12;99184.91;;;-1.68;76.33
54910;BME280;63189;51.240;9.964;2022-12-18T11:33:38;99179.56;;;-1.74;75.29
54910;BME280;63189;51.240;9.964;2022-12-18T11:36:05;99171.38;;;-1.88;76.57
54910;BME280;63189;51.240;9.964;2022-12-18T11:38:34;99157.31;;;-1.99;74.81
54910;BME280;63189;51.240;9.964;2022-12-18T11:41:00;99155.56;;;-2.00;74.55
54910;BME280;63189;51.240;9.964;2022-12-18T11:43:29;99162.81;;;-2.11;76.68
54910;BME280;63189;51.240;9.964;2022-12-18T11:46:10;99156.41;;;-2.22;76.63
54910;BME280;63189;51.240;9.964;2022-12-18T11:48:43;99158.63;;;-2.31;77.17
54910;BME280;63189;51.240;9.964;2022-12-18T11:51:11;99153.72;;;-2.47;77.67
54910;BME280;63189;51.240;9.964;2022-12-18T11:53:39;99169.72;;;-2.51;78.38
54910;BME280;63189;51.240;9.964;2022-12-18T12:21:43;99130.31;;;-3.00;79.95
54910;BME280;63189;51.240;9.964;2022-12-18T12:27:10;99120.50;;;-2.91;81.68
54910;BME280;63189;51.240;9.964;2022-12-18T12:29:50;99119.78;;;-2.86;81.12
54910;BME280;63189;51.240;9.964;2022-12-18T12:32:22;99109.47;;;-2.89;80.23
54910;BME280;63189;51.240;9.964;2022-12-18T12:37:22;99098.44;;;-2.88;80.98
54910;BME280;63189;51.240;9.964;2022-12-18T12:39:50;99095.91;;;-2.88;81.20
54910;BME280;63189;51.240;9.964;2022-12-18T12:42:18;99095.63;;;-2.95;81.61
54910;BME280;63189;51.240;9.964;2022-12-18T12:45:05;99096.13;;;-3.03;80.97
54910;BME280;63189;51.240;9.964;2022-12-18T12:47:36;99095.31;;;-3.02;81.33
54910;BME280;63189;51.240;9.964;2022-12-18T12:50:03;99090.78;;;-3.09;81.37
54910;BME280;63189;51.240;9.964;2022-12-18T12:52:35;99098.97;;;-3.16;82.43
54910;BME280;63189;51.240;9.964;2022-12-18T12:55:03;99093.88;;;-3.16;82.39
54910;BME280;63189;51.240;9.964;2022-12-18T12:57:40;99085.25;;;-3.20;82.33
54910;BME280;63189;51.240;9.964;2022-12-18T13:00:11;99082.41;;;-3.26;84.24
54910;BME280;63189;51.240;9.964;2022-12-18T13:05:32;99072.28;;;-3.25;83.89
54910;BME280;63189;51.240;9.964;2022-12-18T13:07:59;99073.09;;;-3.26;83.76
54910;BME280;63189;51.240;9.964;2022-12-18T13:10:31;99073.72;;;-3.31;84.04
54910;BME280;63189;51.240;9.964;2022-12-18T13:13:10;99077.69;;;-3.38;83.06
54910;BME280;63189;51.240;9.964;2022-12-18T13:15:43;99073.28;;;-3.42;84.15
54910;BME280;63189;51.240;9.964;2022-12-18T13:20:35;99073.69;;;-3.52;85.25
54910;BME280;63189;51.240;9.964;2022-12-18T13:23:17;99075.16;;;-3.57;85.05
54910;BME280;63189;51.240;9.964;2022-12-18T13:25:44;99081.06;;;-3.58;85.32
54910;BME280;63189;51.240;9.964;2022-12-18T13:28:10;99068.84;;;-3.65;84.57
54910;BME280;63189;51.240;9.964;2022-12-18T13:30:43;99078.78;;;-3.71;85.08
54910;BME280;63189;51.240;9.964;2022-12-18T13:35:39;99072.13;;;-3.87;85.05
54910;BME280;63189;51.240;9.964;2022-12-18T13:43:24;99086.81;;;-4.01;86.33
54910;BME280;63189;51.240;9.964;2022-12-18T13:48:26;99084.28;;;-4.01;86.25
54910;BME280;63189;51.240;9.964;2022-12-18T13:50:59;99079.13;;;-4.02;85.67
54910;BME280;63189;51.240;9.964;2022-12-18T13:53:26;99082.47;;;-4.03;86.23
54910;BME280;63189;51.240;9.964;2022-12-18T13:55:52;99088.56;;;-4.00;85.91
54910;BME280;63189;51.240;9.964;2022-12-18T13:58:18;99098.75;;;-4.00;85.97
54910;BME280;63189;51.240;9.964;2022-12-18T14:00:43;99097.06;;;-3.99;86.39
54910;BME280;63189;51.240;9.964;2022-12-18T14:03:42;99094.47;;;-4.01;86.39
54910;BME280;63189;51.240;9.964;2022-12-18T14:06:10;99089.44;;;-3.99;87.23
54910;BME280;63189;51.240;9.964;2022-12-18T14:08:40;99095.38;;;-3.99;86.37
54910;BME280;63189;51.240;9.964;2022-12-18T14:11:06;99086.06;;;-3.98;85.93
54910;BME280;63189;51.240;9.964;2022-12-18T14:13:33;99084.47;;;-3.96;85.76
54910;BME280;63189;51.240;9.964;2022-12-18T14:16:01;99078.66;;;-3.94;86.76
54910;BME280;63189;51.240;9.964;2022-12-18T14:18:48;99084.63;;;-3.93;86.42
54910;BME280;63189;51.240;9.964;2022-12-18T14:21:27;99072.75;;;-3.93;87.26
54910;BME280;63189;51.240;9.964;2022-12-18T14:26:33;99075.00;;;-3.99;86.51
54910;BME280;63189;51.240;9.964;2022-12-18T14:29:00;99061.47;;;-3.98;87.51
54910;BME280;63189;51.240;9.964;2022-12-18T14:31:29;99064.88;;;-3.97;87.40